• Join FlightAware (Why Join?)
  • Login
  • US Flag 
01:59PM EST


 

Airport Tracker/Info


-or-


 

Live Flight TrackerFlight Track Log ✈ N87ER ✈ 17-Aug-2014 ✈ KCHA - KMBT

Flight Track Log - Related Links

Times and Time Zones

All times are in EDT time to prevent confusion due to time zone crossing. See the N87ER flight status page for this flight to view local times or setup timezone preferences in your user account.

Time Position Orientation Groundspeed Altitude Reporting Facility
EDT Latitude Longitude Course Direction KTS MPH feet Rate Location/Type
09:37PM 35.1851 -85.4246 313° West  Level FlightAware Approximate
09:38PM 35.2120 -85.4604 313° West  Level FlightAware Approximate
09:39PM 35.2389 -85.4963 313° West  Level FlightAware Approximate
09:39PM 35.0778 -85.3672 312° West 124 143 6,000  Level Memphis Center
09:40PM 35.2658 -85.5322 313° West  Level FlightAware Approximate
09:40PM 35.1044 -85.3886 327° Northwest 131 151 6,100  Level Memphis Center
09:41PM 35.2926 -85.5681 312° West  Level FlightAware Approximate
09:41PM 35.1275 -85.4236 309° West 134 154 6,100  Level Memphis Center
09:42PM 35.3195 -85.6040 312° West  Level FlightAware Approximate
09:42PM 35.1531 -85.4608 310° West 134 154 6,100  Level Memphis Center
09:43PM 35.3463 -85.6400 312° West  Level FlightAware Approximate
09:43PM 35.1881 -85.4975 319° Northwest 134 154 6,100  Level Memphis Center
09:44PM 35.3731 -85.6760 312° West  Level FlightAware Approximate
09:44PM 35.2161 -85.5317 315° West 137 158 6,100  Level Memphis Center
09:45PM 35.2403 -85.5642 312° West 140 161 6,100 49 Level Memphis Center
09:46PM 35.2664 -85.5978 314° West 140 161 6,200 49 Climbing Memphis Center
09:47PM 35.2992 -85.6367 316° Northwest 140 161 6,200  Level Memphis Center
09:48PM 35.3258 -85.6728 312° West 140 161 6,200  Level Memphis Center
09:49PM 35.3536 -85.7075 314° West 140 161 6,200  Level Memphis Center
09:50PM 35.3825 -85.7422 316° Northwest 140 161 6,200  Level Memphis Center
09:51PM 35.4106 -85.7764 315° West 140 161 6,200  Level Memphis Center
09:52PM 35.4367 -85.8117 312° West 140 161 6,200  Level Memphis Center
09:53PM 35.4639 -85.8461 314° West 138 159 6,200  Level Memphis Center
09:54PM 35.4908 -85.8800 314° West 138 159 6,200  Level Memphis Center
09:55PM 35.5178 -85.9147 314° West 138 159 6,200  Level Memphis Center
09:56PM 35.5439 -85.9511 311° West 138 159 6,200  Level Memphis Center
09:57PM 35.5711 -85.9864 313° West 139 160 6,200 -146 Level Memphis Center
09:58PM 35.5997 -86.0222 314° West 140 161 5,900 -492 Descending Memphis Center
09:59PM 35.6308 -86.0603 315° West 152 175 5,200 -541 Descending Memphis Center
10:00PM 35.6633 -86.1000 315° West 158 182 4,800 -541 Descending Memphis Center
10:01PM 35.6950 -86.1414 313° West 160 184 4,100 -634 Descending Memphis Center
10:02PM 35.7311 -86.1864 315° West 162 186 3,500 -581 Descending Memphis Center